sensor_id;sensor_type;location;lat;lon;timestamp;P1;durP1;ratioP1;P2;durP2;ratioP2
76729;SDS011;65653;53.106;18.046;2024-01-10T00:01:43;41.10;;;16.60;;
76729;SDS011;65653;53.106;18.046;2024-01-10T00:04:10;41.40;;;14.50;;
76729;SDS011;65653;53.106;18.046;2024-01-10T00:06:36;48.80;;;17.40;;
76729;SDS011;65653;53.106;18.046;2024-01-10T00:09:04;36.00;;;13.90;;
76729;SDS011;65653;53.106;18.046;2024-01-10T00:11:35;35.60;;;12.60;;
76729;SDS011;65653;53.106;18.046;2024-01-10T00:14:01;46.20;;;15.60;;
76729;SDS011;65653;53.106;18.046;2024-01-10T00:16:29;30.40;;;13.00;;
76729;SDS011;65653;53.106;18.046;2024-01-10T00:18:56;38.50;;;15.10;;
76729;SDS011;65653;53.106;18.046;2024-01-10T00:21:22;37.30;;;14.90;;
76729;SDS011;65653;53.106;18.046;2024-01-10T00:23:49;42.40;;;15.60;;
76729;SDS011;65653;53.106;18.046;2024-01-10T00:26:17;44.60;;;15.30;;
76729;SDS011;65653;53.106;18.046;2024-01-10T00:28:43;43.40;;;16.00;;
76729;SDS011;65653;53.106;18.046;2024-01-10T00:31:12;29.50;;;10.80;;
76729;SDS011;65653;53.106;18.046;2024-01-10T00:33:39;27.70;;;12.20;;
76729;SDS011;65653;53.106;18.046;2024-01-10T00:36:15;32.70;;;12.70;;
76729;SDS011;65653;53.106;18.046;2024-01-10T00:38:41;30.90;;;11.80;;
76729;SDS011;65653;53.106;18.046;2024-01-10T00:41:08;33.60;;;11.90;;
76729;SDS011;65653;53.106;18.046;2024-01-10T00:43:34;24.40;;;10.20;;
76729;SDS011;65653;53.106;18.046;2024-01-10T00:46:01;27.00;;;11.10;;
76729;SDS011;65653;53.106;18.046;2024-01-10T00:48:27;31.70;;;11.70;;
76729;SDS011;65653;53.106;18.046;2024-01-10T00:50:54;26.00;;;9.10;;
76729;SDS011;65653;53.106;18.046;2024-01-10T00:53:20;32.50;;;13.10;;
76729;SDS011;65653;53.106;18.046;2024-01-10T00:55:47;33.70;;;12.50;;
76729;SDS011;65653;53.106;18.046;2024-01-10T00:58:14;30.40;;;12.30;;
76729;SDS011;65653;53.106;18.046;2024-01-10T01:00:41;25.00;;;11.30;;
76729;SDS011;65653;53.106;18.046;2024-01-10T01:03:07;29.20;;;11.20;;
76729;SDS011;65653;53.106;18.046;2024-01-10T01:05:33;30.10;;;11.90;;
76729;SDS011;65653;53.106;18.046;2024-01-10T01:08:00;29.50;;;10.30;;
76729;SDS011;65653;53.106;18.046;2024-01-10T01:10:26;31.00;;;10.30;;
76729;SDS011;65653;53.106;18.046;2024-01-10T01:12:53;14.30;;;7.00;;
76729;SDS011;65653;53.106;18.046;2024-01-10T01:15:19;28.90;;;9.80;;
76729;SDS011;65653;53.106;18.046;2024-01-10T01:17:46;30.60;;;12.60;;
76729;SDS011;65653;53.106;18.046;2024-01-10T01:20:12;29.80;;;11.00;;
76729;SDS011;65653;53.106;18.046;2024-01-10T01:22:39;26.00;;;9.20;;
76729;SDS011;65653;53.106;18.046;2024-01-10T01:25:05;26.20;;;9.50;;
76729;SDS011;65653;53.106;18.046;2024-01-10T01:27:32;10.70;;;5.50;;
76729;SDS011;65653;53.106;18.046;2024-01-10T01:29:59;23.00;;;10.70;;
76729;SDS011;65653;53.106;18.046;2024-01-10T01:32:25;23.90;;;9.90;;
76729;SDS011;65653;53.106;18.046;2024-01-10T01:34:52;28.50;;;10.70;;
76729;SDS011;65653;53.106;18.046;2024-01-10T01:37:18;26.80;;;11.50;;
76729;SDS011;65653;53.106;18.046;2024-01-10T01:39:45;29.90;;;12.60;;
76729;SDS011;65653;53.106;18.046;2024-01-10T01:42:11;31.70;;;11.80;;
76729;SDS011;65653;53.106;18.046;2024-01-10T01:44:38;21.90;;;8.40;;
76729;SDS011;65653;53.106;18.046;2024-01-10T01:47:04;25.90;;;10.80;;
76729;SDS011;65653;53.106;18.046;2024-01-10T01:49:31;22.90;;;9.40;;
76729;SDS011;65653;53.106;18.046;2024-01-10T01:51:58;30.50;;;12.30;;
76729;SDS011;65653;53.106;18.046;2024-01-10T01:54:25;23.70;;;10.20;;
76729;SDS011;65653;53.106;18.046;2024-01-10T01:56:53;28.10;;;11.70;;
76729;SDS011;65653;53.106;18.046;2024-01-10T01:59:19;21.10;;;6.80;;
76729;SDS011;65653;53.106;18.046;2024-01-10T02:01:46;25.30;;;9.50;;
76729;SDS011;65653;53.106;18.046;2024-01-10T02:04:12;27.90;;;11.20;;
76729;SDS011;65653;53.106;18.046;2024-01-10T02:06:39;26.60;;;12.30;;
76729;SDS011;65653;53.106;18.046;2024-01-10T02:09:06;30.40;;;14.20;;
76729;SDS011;65653;53.106;18.046;2024-01-10T02:11:32;32.00;;;11.70;;
76729;SDS011;65653;53.106;18.046;2024-01-10T02:13:59;29.40;;;12.50;;
76729;SDS011;65653;53.106;18.046;2024-01-10T02:16:26;37.10;;;13.70;;
76729;SDS011;65653;53.106;18.046;2024-01-10T02:18:53;27.70;;;10.80;;
76729;SDS011;65653;53.106;18.046;2024-01-10T02:21:22;28.70;;;12.80;;
76729;SDS011;65653;53.106;18.046;2024-01-10T02:23:49;32.50;;;13.70;;
76729;SDS011;65653;53.106;18.046;2024-01-10T02:26:16;30.60;;;12.20;;
76729;SDS011;65653;53.106;18.046;2024-01-10T02:28:42;29.40;;;12.70;;
76729;SDS011;65653;53.106;18.046;2024-01-10T02:31:09;23.10;;;8.90;;
76729;SDS011;65653;53.106;18.046;2024-01-10T02:33:35;27.70;;;9.10;;
76729;SDS011;65653;53.106;18.046;2024-01-10T02:36:02;28.80;;;12.30;;
76729;SDS011;65653;53.106;18.046;2024-01-10T02:38:29;26.20;;;11.90;;
76729;SDS011;65653;53.106;18.046;2024-01-10T02:40:55;27.50;;;10.90;;
76729;SDS011;65653;53.106;18.046;2024-01-10T02:43:22;27.90;;;9.60;;
76729;SDS011;65653;53.106;18.046;2024-01-10T02:45:49;30.70;;;9.40;;
76729;SDS011;65653;53.106;18.046;2024-01-10T02:48:15;24.90;;;10.50;;
76729;SDS011;65653;53.106;18.046;2024-01-10T02:50:42;22.70;;;8.50;;
76729;SDS011;65653;53.106;18.046;2024-01-10T02:53:09;23.30;;;9.30;;
76729;SDS011;65653;53.106;18.046;2024-01-10T02:55:35;30.40;;;11.50;;
76729;SDS011;65653;53.106;18.046;2024-01-10T02:58:02;21.10;;;7.60;;
76729;SDS011;65653;53.106;18.046;2024-01-10T03:00:28;28.10;;;11.70;;
76729;SDS011;65653;53.106;18.046;2024-01-10T03:02:55;42.00;;;13.70;;
76729;SDS011;65653;53.106;18.046;2024-01-10T03:05:22;32.50;;;12.30;;
76729;SDS011;65653;53.106;18.046;2024-01-10T03:07:49;41.20;;;13.80;;
76729;SDS011;65653;53.106;18.046;2024-01-10T03:10:15;46.90;;;16.20;;
76729;SDS011;65653;53.106;18.046;2024-01-10T03:12:42;44.70;;;16.60;;
76729;SDS011;65653;53.106;18.046;2024-01-10T03:15:08;44.20;;;16.50;;
76729;SDS011;65653;53.106;18.046;2024-01-10T03:17:35;46.80;;;17.00;;
76729;SDS011;65653;53.106;18.046;2024-01-10T03:20:02;49.60;;;18.10;;
76729;SDS011;65653;53.106;18.046;2024-01-10T03:22:30;30.70;;;10.70;;
76729;SDS011;65653;53.106;18.046;2024-01-10T03:24:58;63.30;;;18.60;;
76729;SDS011;65653;53.106;18.046;2024-01-10T03:27:25;47.70;;;16.50;;
76729;SDS011;65653;53.106;18.046;2024-01-10T03:29:51;45.70;;;18.30;;
76729;SDS011;65653;53.106;18.046;2024-01-10T03:32:18;45.50;;;17.40;;
76729;SDS011;65653;53.106;18.046;2024-01-10T03:34:44;28.70;;;11.10;;
76729;SDS011;65653;53.106;18.046;2024-01-10T03:37:11;41.80;;;13.70;;
76729;SDS011;65653;53.106;18.046;2024-01-10T03:39:37;51.90;;;19.10;;
76729;SDS011;65653;53.106;18.046;2024-01-10T03:42:04;48.40;;;18.60;;
76729;SDS011;65653;53.106;18.046;2024-01-10T03:44:30;47.20;;;16.80;;
76729;SDS011;65653;53.106;18.046;2024-01-10T03:46:57;39.60;;;14.80;;
76729;SDS011;65653;53.106;18.046;2024-01-10T03:49:24;53.90;;;18.50;;
76729;SDS011;65653;53.106;18.046;2024-01-10T03:51:50;45.80;;;16.40;;
76729;SDS011;65653;53.106;18.046;2024-01-10T03:54:17;51.00;;;18.50;;
76729;SDS011;65653;53.106;18.046;2024-01-10T03:56:43;46.80;;;16.10;;
76729;SDS011;65653;53.106;18.046;2024-01-10T03:59:10;61.30;;;19.80;;
76729;SDS011;65653;53.106;18.046;2024-01-10T04:01:37;41.50;;;16.30;;
76729;SDS011;65653;53.106;18.046;2024-01-10T04:04:05;58.10;;;19.90;;
76729;SDS011;65653;53.106;18.046;2024-01-10T04:06:32;59.30;;;19.80;;
76729;SDS011;65653;53.106;18.046;2024-01-10T04:08:58;49.50;;;17.80;;
76729;SDS011;65653;53.106;18.046;2024-01-10T04:11:25;65.70;;;21.70;;
76729;SDS011;65653;53.106;18.046;2024-01-10T04:13:51;53.90;;;18.00;;
76729;SDS011;65653;53.106;18.046;2024-01-10T04:16:18;58.60;;;19.90;;
76729;SDS011;65653;53.106;18.046;2024-01-10T04:18:44;58.20;;;19.50;;
76729;SDS011;65653;53.106;18.046;2024-01-10T04:21:11;39.10;;;13.70;;
76729;SDS011;65653;53.106;18.046;2024-01-10T04:23:37;39.10;;;15.10;;
76729;SDS011;65653;53.106;18.046;2024-01-10T04:26:04;45.90;;;15.10;;
76729;SDS011;65653;53.106;18.046;2024-01-10T04:28:30;25.30;;;10.10;;
76729;SDS011;65653;53.106;18.046;2024-01-10T04:30:57;57.20;;;20.90;;
76729;SDS011;65653;53.106;18.046;2024-01-10T04:33:24;61.90;;;20.40;;
76729;SDS011;65653;53.106;18.046;2024-01-10T04:35:50;54.10;;;18.40;;
76729;SDS011;65653;53.106;18.046;2024-01-10T04:38:17;56.00;;;19.10;;
76729;SDS011;65653;53.106;18.046;2024-01-10T04:40:44;37.10;;;12.60;;
76729;SDS011;65653;53.106;18.046;2024-01-10T04:43:11;56.30;;;18.60;;
76729;SDS011;65653;53.106;18.046;2024-01-10T04:45:37;43.60;;;15.10;;
76729;SDS011;65653;53.106;18.046;2024-01-10T04:48:04;57.80;;;18.80;;
76729;SDS011;65653;53.106;18.046;2024-01-10T04:50:30;29.60;;;11.20;;
76729;SDS011;65653;53.106;18.046;2024-01-10T04:52:57;53.30;;;18.60;;
76729;SDS011;65653;53.106;18.046;2024-01-10T04:55:23;44.50;;;16.80;;
76729;SDS011;65653;53.106;18.046;2024-01-10T04:57:50;62.30;;;21.60;;
76729;SDS011;65653;53.106;18.046;2024-01-10T05:00:16;44.20;;;16.10;;
76729;SDS011;65653;53.106;18.046;2024-01-10T05:02:43;36.00;;;12.80;;
76729;SDS011;65653;53.106;18.046;2024-01-10T05:05:10;55.80;;;18.00;;
76729;SDS011;65653;53.106;18.046;2024-01-10T05:07:36;28.00;;;11.10;;
76729;SDS011;65653;53.106;18.046;2024-01-10T05:10:03;55.70;;;19.00;;
76729;SDS011;65653;53.106;18.046;2024-01-10T05:12:30;56.60;;;18.10;;
76729;SDS011;65653;53.106;18.046;2024-01-10T05:14:57;64.30;;;21.00;;
76729;SDS011;65653;53.106;18.046;2024-01-10T05:17:23;50.30;;;17.30;;
76729;SDS011;65653;53.106;18.046;2024-01-10T05:19:50;47.20;;;16.90;;
76729;SDS011;65653;53.106;18.046;2024-01-10T05:22:16;57.20;;;18.80;;
76729;SDS011;65653;53.106;18.046;2024-01-10T05:24:43;41.20;;;13.40;;
76729;SDS011;65653;53.106;18.046;2024-01-10T05:27:10;40.90;;;13.80;;
76729;SDS011;65653;53.106;18.046;2024-01-10T05:29:37;49.10;;;17.50;;
76729;SDS011;65653;53.106;18.046;2024-01-10T05:32:04;44.20;;;13.60;;
76729;SDS011;65653;53.106;18.046;2024-01-10T05:34:30;42.90;;;13.20;;
76729;SDS011;65653;53.106;18.046;2024-01-10T05:36:57;27.20;;;10.90;;
76729;SDS011;65653;53.106;18.046;2024-01-10T05:39:23;46.90;;;12.00;;
76729;SDS011;65653;53.106;18.046;2024-01-10T05:41:50;39.20;;;13.20;;
76729;SDS011;65653;53.106;18.046;2024-01-10T05:44:17;46.20;;;14.80;;
76729;SDS011;65653;53.106;18.046;2024-01-10T05:46:43;43.20;;;15.80;;
76729;SDS011;65653;53.106;18.046;2024-01-10T05:49:10;25.80;;;10.70;;
76729;SDS011;65653;53.106;18.046;2024-01-10T05:51:37;40.30;;;15.40;;
76729;SDS011;65653;53.106;18.046;2024-01-10T05:54:03;51.20;;;18.80;;
76729;SDS011;65653;53.106;18.046;2024-01-10T05:56:30;37.10;;;13.00;;
76729;SDS011;65653;53.106;18.046;2024-01-10T05:58:56;40.70;;;13.40;;
76729;SDS011;65653;53.106;18.046;2024-01-10T06:01:23;32.50;;;10.70;;
76729;SDS011;65653;53.106;18.046;2024-01-10T06:03:49;43.20;;;15.00;;
76729;SDS011;65653;53.106;18.046;2024-01-10T06:06:16;41.90;;;12.90;;
76729;SDS011;65653;53.106;18.046;2024-01-10T06:08:43;39.50;;;13.50;;
76729;SDS011;65653;53.106;18.046;2024-01-10T06:11:10;43.90;;;15.40;;
76729;SDS011;65653;53.106;18.046;2024-01-10T06:13:36;22.30;;;9.00;;
76729;SDS011;65653;53.106;18.046;2024-01-10T06:16:03;28.20;;;9.40;;
76729;SDS011;65653;53.106;18.046;2024-01-10T06:18:30;32.30;;;12.60;;
76729;SDS011;65653;53.106;18.046;2024-01-10T06:20:56;29.00;;;10.60;;
76729;SDS011;65653;53.106;18.046;2024-01-10T06:23:23;46.40;;;14.60;;
76729;SDS011;65653;53.106;18.046;2024-01-10T06:25:50;42.60;;;14.00;;
76729;SDS011;65653;53.106;18.046;2024-01-10T06:28:16;44.50;;;14.20;;
76729;SDS011;65653;53.106;18.046;2024-01-10T06:30:43;32.30;;;10.30;;
76729;SDS011;65653;53.106;18.046;2024-01-10T06:33:09;25.70;;;9.30;;
76729;SDS011;65653;53.106;18.046;2024-01-10T06:35:36;17.40;;;6.90;;
76729;SDS011;65653;53.106;18.046;2024-01-10T06:38:03;44.50;;;13.20;;
76729;SDS011;65653;53.106;18.046;2024-01-10T06:40:30;32.00;;;11.30;;
76729;SDS011;65653;53.106;18.046;2024-01-10T06:42:57;35.60;;;12.90;;
76729;SDS011;65653;53.106;18.046;2024-01-10T06:45:23;23.60;;;9.70;;
76729;SDS011;65653;53.106;18.046;2024-01-10T06:47:50;24.60;;;9.40;;
76729;SDS011;65653;53.106;18.046;2024-01-10T06:50:16;41.20;;;13.70;;
76729;SDS011;65653;53.106;18.046;2024-01-10T06:52:45;38.30;;;13.70;;
76729;SDS011;65653;53.106;18.046;2024-01-10T06:55:12;35.90;;;13.10;;
76729;SDS011;65653;53.106;18.046;2024-01-10T06:57:38;38.80;;;12.00;;
76729;SDS011;65653;53.106;18.046;2024-01-10T07:00:05;25.10;;;9.30;;
76729;SDS011;65653;53.106;18.046;2024-01-10T07:02:37;45.70;;;14.90;;
76729;SDS011;65653;53.106;18.046;2024-01-10T07:05:07;31.80;;;10.30;;
76729;SDS011;65653;53.106;18.046;2024-01-10T07:07:36;26.10;;;8.20;;
76729;SDS011;65653;53.106;18.046;2024-01-10T07:10:04;41.20;;;12.40;;
76729;SDS011;65653;53.106;18.046;2024-01-10T07:12:33;32.80;;;10.70;;
76729;SDS011;65653;53.106;18.046;2024-01-10T07:15:00;36.80;;;11.10;;
76729;SDS011;65653;53.106;18.046;2024-01-10T07:17:29;45.80;;;14.50;;
76729;SDS011;65653;53.106;18.046;2024-01-10T07:19:56;27.30;;;10.30;;
76729;SDS011;65653;53.106;18.046;2024-01-10T07:22:23;29.60;;;9.50;;
76729;SDS011;65653;53.106;18.046;2024-01-10T07:24:49;40.60;;;12.70;;
76729;SDS011;65653;53.106;18.046;2024-01-10T07:27:15;40.50;;;14.00;;
76729;SDS011;65653;53.106;18.046;2024-01-10T07:29:42;22.80;;;8.90;;
76729;SDS011;65653;53.106;18.046;2024-01-10T07:32:09;41.50;;;13.30;;
76729;SDS011;65653;53.106;18.046;2024-01-10T07:34:39;42.80;;;13.00;;
76729;SDS011;65653;53.106;18.046;2024-01-10T07:37:06;20.20;;;6.30;;
76729;SDS011;65653;53.106;18.046;2024-01-10T07:39:32;35.60;;;12.70;;
76729;SDS011;65653;53.106;18.046;2024-01-10T07:41:59;28.70;;;10.80;;
76729;SDS011;65653;53.106;18.046;2024-01-10T07:44:28;41.30;;;13.10;;
76729;SDS011;65653;53.106;18.046;2024-01-10T07:46:55;39.90;;;13.20;;
76729;SDS011;65653;53.106;18.046;2024-01-10T07:49:21;38.60;;;13.00;;
76729;SDS011;65653;53.106;18.046;2024-01-10T07:51:50;23.80;;;8.60;;
76729;SDS011;65653;53.106;18.046;2024-01-10T07:54:17;39.90;;;13.40;;
76729;SDS011;65653;53.106;18.046;2024-01-10T07:56:43;43.70;;;16.30;;
76729;SDS011;65653;53.106;18.046;2024-01-10T07:59:10;39.50;;;15.40;;
76729;SDS011;65653;53.106;18.046;2024-01-10T08:01:43;32.30;;;11.70;;
76729;SDS011;65653;53.106;18.046;2024-01-10T08:04:22;34.60;;;11.90;;
76729;SDS011;65653;53.106;18.046;2024-01-10T08:06:49;46.10;;;16.20;;
76729;SDS011;65653;53.106;18.046;2024-01-10T08:09:15;29.40;;;11.00;;
76729;SDS011;65653;53.106;18.046;2024-01-10T08:11:43;32.70;;;11.30;;
76729;SDS011;65653;53.106;18.046;2024-01-10T08:14:10;34.30;;;12.30;;
76729;SDS011;65653;53.106;18.046;2024-01-10T08:16:37;32.20;;;12.20;;
76729;SDS011;65653;53.106;18.046;2024-01-10T08:19:03;36.20;;;13.00;;
76729;SDS011;65653;53.106;18.046;2024-01-10T08:21:30;37.20;;;15.40;;
76729;SDS011;65653;53.106;18.046;2024-01-10T08:23:57;30.30;;;12.30;;
76729;SDS011;65653;53.106;18.046;2024-01-10T08:26:24;30.00;;;10.70;;
76729;SDS011;65653;53.106;18.046;2024-01-10T08:28:51;29.80;;;10.80;;
76729;SDS011;65653;53.106;18.046;2024-01-10T08:31:17;26.50;;;11.70;;
76729;SDS011;65653;53.106;18.046;2024-01-10T08:33:44;23.60;;;9.50;;
76729;SDS011;65653;53.106;18.046;2024-01-10T08:36:11;42.90;;;15.40;;
76729;SDS011;65653;53.106;18.046;2024-01-10T08:38:38;31.80;;;13.60;;
76729;SDS011;65653;53.106;18.046;2024-01-10T08:41:07;28.90;;;11.10;;
76729;SDS011;65653;53.106;18.046;2024-01-10T08:43:38;29.80;;;11.70;;
76729;SDS011;65653;53.106;18.046;2024-01-10T08:46:04;25.30;;;9.90;;
76729;SDS011;65653;53.106;18.046;2024-01-10T08:48:31;32.90;;;13.40;;
76729;SDS011;65653;53.106;18.046;2024-01-10T08:50:57;25.90;;;11.20;;
76729;SDS011;65653;53.106;18.046;2024-01-10T08:53:24;27.80;;;9.80;;
76729;SDS011;65653;53.106;18.046;2024-01-10T08:55:51;23.90;;;9.90;;
76729;SDS011;65653;53.106;18.046;2024-01-10T08:58:18;24.70;;;9.50;;
76729;SDS011;65653;53.106;18.046;2024-01-10T09:00:44;18.40;;;7.70;;
76729;SDS011;65653;53.106;18.046;2024-01-10T09:03:11;23.60;;;9.80;;
76729;SDS011;65653;53.106;18.046;2024-01-10T09:05:38;26.70;;;11.10;;
76729;SDS011;65653;53.106;18.046;2024-01-10T09:08:06;26.40;;;10.20;;
76729;SDS011;65653;53.106;18.046;2024-01-10T09:10:32;32.00;;;12.70;;
76729;SDS011;65653;53.106;18.046;2024-01-10T09:12:59;23.10;;;8.10;;
76729;SDS011;65653;53.106;18.046;2024-01-10T09:15:26;13.60;;;5.40;;
76729;SDS011;65653;53.106;18.046;2024-01-10T09:17:53;25.20;;;9.80;;
76729;SDS011;65653;53.106;18.046;2024-01-10T09:20:19;25.30;;;10.70;;
76729;SDS011;65653;53.106;18.046;2024-01-10T09:22:46;29.10;;;11.80;;
76729;SDS011;65653;53.106;18.046;2024-01-10T09:25:13;26.50;;;11.60;;
76729;SDS011;65653;53.106;18.046;2024-01-10T09:27:39;29.40;;;12.40;;
76729;SDS011;65653;53.106;18.046;2024-01-10T09:30:10;21.20;;;9.60;;
76729;SDS011;65653;53.106;18.046;2024-01-10T09:32:40;30.30;;;11.40;;
76729;SDS011;65653;53.106;18.046;2024-01-10T09:35:07;25.80;;;10.50;;
76729;SDS011;65653;53.106;18.046;2024-01-10T09:37:34;22.10;;;8.80;;
76729;SDS011;65653;53.106;18.046;2024-01-10T09:40:01;25.00;;;9.70;;
76729;SDS011;65653;53.106;18.046;2024-01-10T09:42:28;19.70;;;8.30;;
76729;SDS011;65653;53.106;18.046;2024-01-10T09:44:57;17.30;;;8.40;;
76729;SDS011;65653;53.106;18.046;2024-01-10T09:47:24;17.70;;;7.70;;
76729;SDS011;65653;53.106;18.046;2024-01-10T09:49:52;24.60;;;9.90;;
76729;SDS011;65653;53.106;18.046;2024-01-10T09:52:25;17.30;;;6.00;;
76729;SDS011;65653;53.106;18.046;2024-01-10T09:54:54;21.20;;;8.40;;
76729;SDS011;65653;53.106;18.046;2024-01-10T09:57:25;13.30;;;6.00;;
76729;SDS011;65653;53.106;18.046;2024-01-10T09:59:53;22.90;;;9.30;;
76729;SDS011;65653;53.106;18.046;2024-01-10T10:02:23;22.40;;;9.80;;
76729;SDS011;65653;53.106;18.046;2024-01-10T10:07:42;21.10;;;8.00;;
76729;SDS011;65653;53.106;18.046;2024-01-10T10:10:17;11.80;;;6.20;;
76729;SDS011;65653;53.106;18.046;2024-01-10T10:12:44;25.40;;;8.70;;
76729;SDS011;65653;53.106;18.046;2024-01-10T10:15:13;23.20;;;8.10;;
76729;SDS011;65653;53.106;18.046;2024-01-10T10:17:43;24.90;;;10.00;;
76729;SDS011;65653;53.106;18.046;2024-01-10T10:20:22;21.50;;;8.80;;
76729;SDS011;65653;53.106;18.046;2024-01-10T10:23:00;15.00;;;5.80;;
76729;SDS011;65653;53.106;18.046;2024-01-10T10:25:34;21.80;;;9.50;;
76729;SDS011;65653;53.106;18.046;2024-01-10T10:28:02;21.20;;;8.10;;
76729;SDS011;65653;53.106;18.046;2024-01-10T10:30:30;12.00;;;4.50;;
76729;SDS011;65653;53.106;18.046;2024-01-10T10:32:57;16.80;;;6.70;;
76729;SDS011;65653;53.106;18.046;2024-01-10T10:35:24;16.20;;;6.70;;
76729;SDS011;65653;53.106;18.046;2024-01-10T10:37:51;13.00;;;5.60;;
76729;SDS011;65653;53.106;18.046;2024-01-10T10:40:19;13.40;;;6.70;;
76729;SDS011;65653;53.106;18.046;2024-01-10T10:42:47;14.10;;;5.50;;
76729;SDS011;65653;53.106;18.046;2024-01-10T10:45:22;16.80;;;6.60;;
76729;SDS011;65653;53.106;18.046;2024-01-10T10:48:01;15.60;;;6.00;;
76729;SDS011;65653;53.106;18.046;2024-01-10T10:50:29;11.30;;;4.10;;
76729;SDS011;65653;53.106;18.046;2024-01-10T10:53:00;10.50;;;4.60;;
76729;SDS011;65653;53.106;18.046;2024-01-10T10:55:29;9.90;;;4.70;;
76729;SDS011;65653;53.106;18.046;2024-01-10T10:57:57;13.80;;;5.00;;
76729;SDS011;65653;53.106;18.046;2024-01-10T11:00:33;14.30;;;5.60;;
76729;SDS011;65653;53.106;18.046;2024-01-10T11:03:01;14.00;;;5.80;;
76729;SDS011;65653;53.106;18.046;2024-01-10T11:05:30;11.90;;;6.00;;
76729;SDS011;65653;53.106;18.046;2024-01-10T11:08:00;10.10;;;4.40;;
76729;SDS011;65653;53.106;18.046;2024-01-10T11:10:31;17.20;;;6.90;;
76729;SDS011;65653;53.106;18.046;2024-01-10T11:13:03;17.60;;;6.80;;
76729;SDS011;65653;53.106;18.046;2024-01-10T11:23:43;9.60;;;4.40;;
76729;SDS011;65653;53.106;18.046;2024-01-10T11:26:16;21.10;;;8.10;;
76729;SDS011;65653;53.106;18.046;2024-01-10T11:28:43;17.50;;;6.50;;
76729;SDS011;65653;53.106;18.046;2024-01-10T11:31:10;13.10;;;6.20;;
76729;SDS011;65653;53.106;18.046;2024-01-10T11:33:40;17.60;;;7.10;;
76729;SDS011;65653;53.106;18.046;2024-01-10T11:36:15;17.90;;;5.90;;
76729;SDS011;65653;53.106;18.046;2024-01-10T11:41:21;11.00;;;4.60;;
76729;SDS011;65653;53.106;18.046;2024-01-10T11:47:09;15.80;;;5.80;;
76729;SDS011;65653;53.106;18.046;2024-01-10T11:49:30;12.60;;;5.00;;
76729;SDS011;65653;53.106;18.046;2024-01-10T11:51:57;12.00;;;4.40;;
76729;SDS011;65653;53.106;18.046;2024-01-10T11:54:37;9.70;;;4.10;;
76729;SDS011;65653;53.106;18.046;2024-01-10T11:57:11;14.90;;;5.00;;
76729;SDS011;65653;53.106;18.046;2024-01-10T11:59:59;11.00;;;4.00;;
76729;SDS011;65653;53.106;18.046;2024-01-10T12:02:27;19.20;;;7.30;;
76729;SDS011;65653;53.106;18.046;2024-01-10T12:04:54;13.50;;;5.50;;
76729;SDS011;65653;53.106;18.046;2024-01-10T12:07:21;12.80;;;5.10;;
76729;SDS011;65653;53.106;18.046;2024-01-10T12:09:50;24.60;;;8.40;;
76729;SDS011;65653;53.106;18.046;2024-01-10T12:12:21;21.90;;;7.60;;
76729;SDS011;65653;53.106;18.046;2024-01-10T12:14:48;11.70;;;4.80;;
76729;SDS011;65653;53.106;18.046;2024-01-10T12:17:18;14.70;;;7.00;;
76729;SDS011;65653;53.106;18.046;2024-01-10T12:19:45;18.10;;;7.20;;
76729;SDS011;65653;53.106;18.046;2024-01-10T12:22:15;10.10;;;4.40;;
76729;SDS011;65653;53.106;18.046;2024-01-10T12:24:51;20.90;;;7.60;;
76729;SDS011;65653;53.106;18.046;2024-01-10T12:27:19;18.30;;;6.90;;
76729;SDS011;65653;53.106;18.046;2024-01-10T12:29:50;21.20;;;8.00;;
76729;SDS011;65653;53.106;18.046;2024-01-10T12:32:18;18.60;;;7.50;;
76729;SDS011;65653;53.106;18.046;2024-01-10T12:34:47;19.20;;;7.30;;
76729;SDS011;65653;53.106;18.046;2024-01-10T12:37:13;20.00;;;6.80;;
76729;SDS011;65653;53.106;18.046;2024-01-10T12:39:40;16.50;;;6.40;;
76729;SDS011;65653;53.106;18.046;2024-01-10T12:42:06;20.40;;;8.00;;
76729;SDS011;65653;53.106;18.046;2024-01-10T12:44:33;23.00;;;8.80;;
76729;SDS011;65653;53.106;18.046;2024-01-10T12:47:00;16.50;;;7.30;;
76729;SDS011;65653;53.106;18.046;2024-01-10T12:49:29;16.10;;;7.00;;
76729;SDS011;65653;53.106;18.046;2024-01-10T12:51:56;20.30;;;7.40;;
76729;SDS011;65653;53.106;18.046;2024-01-10T12:54:22;15.60;;;6.20;;
76729;SDS011;65653;53.106;18.046;2024-01-10T12:56:49;11.60;;;4.50;;
76729;SDS011;65653;53.106;18.046;2024-01-10T12:59:16;13.70;;;4.90;;
76729;SDS011;65653;53.106;18.046;2024-01-10T13:01:43;22.40;;;8.00;;
76729;SDS011;65653;53.106;18.046;2024-01-10T13:04:09;17.10;;;6.90;;
76729;SDS011;65653;53.106;18.046;2024-01-10T13:06:38;24.10;;;8.70;;
76729;SDS011;65653;53.106;18.046;2024-01-10T13:09:06;28.40;;;11.20;;
76729;SDS011;65653;53.106;18.046;2024-01-10T13:11:33;20.60;;;9.40;;
76729;SDS011;65653;53.106;18.046;2024-01-10T13:14:00;23.80;;;9.80;;
76729;SDS011;65653;53.106;18.046;2024-01-10T13:16:27;30.70;;;13.00;;
76729;SDS011;65653;53.106;18.046;2024-01-10T13:18:53;24.90;;;9.90;;
76729;SDS011;65653;53.106;18.046;2024-01-10T13:21:20;20.30;;;7.40;;
76729;SDS011;65653;53.106;18.046;2024-01-10T13:23:50;17.90;;;6.40;;
76729;SDS011;65653;53.106;18.046;2024-01-10T13:26:17;16.20;;;6.40;;
76729;SDS011;65653;53.106;18.046;2024-01-10T13:28:44;18.90;;;7.30;;
76729;SDS011;65653;53.106;18.046;2024-01-10T13:31:10;25.30;;;7.90;;
76729;SDS011;65653;53.106;18.046;2024-01-10T13:33:37;19.10;;;5.90;;
76729;SDS011;65653;53.106;18.046;2024-01-10T13:36:04;15.90;;;5.90;;
76729;SDS011;65653;53.106;18.046;2024-01-10T13:38:31;11.40;;;5.40;;
76729;SDS011;65653;53.106;18.046;2024-01-10T13:40:57;15.40;;;6.00;;
76729;SDS011;65653;53.106;18.046;2024-01-10T13:43:24;10.60;;;5.10;;
76729;SDS011;65653;53.106;18.046;2024-01-10T13:45:51;17.10;;;6.80;;
76729;SDS011;65653;53.106;18.046;2024-01-10T13:48:19;22.90;;;8.30;;
76729;SDS011;65653;53.106;18.046;2024-01-10T13:50:45;17.60;;;7.30;;
76729;SDS011;65653;53.106;18.046;2024-01-10T13:53:12;18.20;;;6.80;;
76729;SDS011;65653;53.106;18.046;2024-01-10T13:55:39;20.50;;;8.10;;
76729;SDS011;65653;53.106;18.046;2024-01-10T13:58:05;17.20;;;6.60;;
76729;SDS011;65653;53.106;18.046;2024-01-10T14:00:34;19.30;;;6.70;;
76729;SDS011;65653;53.106;18.046;2024-01-10T14:03:00;17.70;;;6.60;;
76729;SDS011;65653;53.106;18.046;2024-01-10T14:05:27;11.60;;;5.30;;
76729;SDS011;65653;53.106;18.046;2024-01-10T14:07:53;19.80;;;8.10;;
76729;SDS011;65653;53.106;18.046;2024-01-10T14:10:20;31.50;;;13.30;;
76729;SDS011;65653;53.106;18.046;2024-01-10T14:12:47;22.30;;;8.30;;
76729;SDS011;65653;53.106;18.046;2024-01-10T14:15:15;24.50;;;8.50;;
76729;SDS011;65653;53.106;18.046;2024-01-10T14:17:42;32.80;;;12.90;;
76729;SDS011;65653;53.106;18.046;2024-01-10T14:20:09;33.80;;;10.90;;
76729;SDS011;65653;53.106;18.046;2024-01-10T14:22:36;22.10;;;8.80;;
76729;SDS011;65653;53.106;18.046;2024-01-10T14:25:03;24.70;;;9.00;;
76729;SDS011;65653;53.106;18.046;2024-01-10T14:27:31;26.00;;;10.80;;
76729;SDS011;65653;53.106;18.046;2024-01-10T14:29:58;25.90;;;10.00;;
76729;SDS011;65653;53.106;18.046;2024-01-10T14:32:29;24.40;;;10.40;;